Terminal Aerodrome Forecast
Issued by NWS Mt. Holly, NJ

Home | Current Version | Previous Version | Text Only | Print | Product List | Glossary On
Versions: 1 2 3 4 5 6 7 8 9 10 11 12
544
FTUS41 KPHI 222340
TAFILG
TAF
KILG 222340Z 2300/2324 16004KT P6SM BKN250
     FM230400 18003KT 5SM BR FEW005 SCT250
     FM230600 18003KT 3SM BR OVC008
      TEMPO 2310/2313 1/2SM FG OVC002
     FM231500 21006KT 4SM BR SCT007 OVC012
     FM231700 21008KT P6SM SCT015 BKN060=

USA.gov is the U.S. government's official web portal to all federal, state and local government web resources and services.